Time;durP1;ratioP1;P1;durP2;ratioP2;P2;SDS_P1;SDS_P2;PMS_P1;PMS_P2;Temp;Humidity;BMP_temperature;BMP_pressure;BME280_temperature;BME280_humidity;BME280_pressure;Samples;Min_cycle;Max_cycle;Signal;HPM_P1;HPM_P2
2022/12/14 00:01:00;;;;;;;34.97;19.23;;;;;;;;;;4389926;32;317690;-85
2022/12/14 00:03:29;;;;;;;29.13;18.97;;;;;;;;;;4389028;32;317715;-85
2022/12/14 00:05:57;;;;;;;29.80;19.13;;;;;;;;;;4374967;32;417420;-88
2022/12/14 00:08:24;;;;;;;24.47;17.77;;;;;;;;;;4389537;32;317794;-87
2022/12/14 00:10:53;;;;;;;26.97;18.77;;;;;;;;;;4378272;32;317884;-88
2022/12/14 00:13:20;;;;;;;29.83;18.23;;;;;;;;;;4388885;32;317858;-86
2022/12/14 00:15:48;;;;;;;30.87;19.33;;;;;;;;;;4377794;32;317975;-84
2022/12/14 00:18:16;;;;;;;27.47;18.23;;;;;;;;;;4387624;32;317660;-84
2022/12/14 00:20:43;;;;;;;29.17;19.37;;;;;;;;;;4378558;32;317706;-84
2022/12/14 00:23:11;;;;;;;24.33;17.73;;;;;;;;;;4389748;32;317664;-84
2022/12/14 00:25:39;;;;;;;29.57;20.43;;;;;;;;;;4378952;32;317638;-90
2022/12/14 00:28:07;;;;;;;33.03;21.63;;;;;;;;;;4388915;32;317833;-82
2022/12/14 00:30:35;;;;;;;35.47;22.00;;;;;;;;;;4379452;32;317862;-88
2022/12/14 00:33:02;;;;;;;35.90;22.73;;;;;;;;;;4387891;32;345873;-87
2022/12/14 00:35:30;;;;;;;35.17;23.20;;;;;;;;;;4377893;32;317783;-86
2022/12/14 00:37:57;;;;;;;42.13;24.80;;;;;;;;;;4388439;32;317737;-75
2022/12/14 00:40:25;;;;;;;34.50;20.03;;;;;;;;;;4388385;32;318247;-87
2022/12/14 00:42:52;;;;;;;30.13;19.37;;;;;;;;;;4376980;32;317847;-85
2022/12/14 00:45:21;;;;;;;30.00;17.33;;;;;;;;;;4387466;32;318381;-84
2022/12/14 00:47:48;;;;;;;23.73;16.63;;;;;;;;;;4377943;32;317634;-86
2022/12/14 00:50:16;;;;;;;25.07;16.27;;;;;;;;;;4388488;32;317679;-84
2022/12/14 00:52:43;;;;;;;22.77;14.67;;;;;;;;;;4377139;32;317927;-86
2022/12/14 00:55:10;;;;;;;19.20;14.93;;;;;;;;;;4387340;32;317876;-83
2022/12/14 00:57:38;;;;;;;30.20;17.83;;;;;;;;;;4377953;32;317862;-85
2022/12/14 01:00:07;;;;;;;25.17;15.27;;;;;;;;;;4387557;32;317987;-89
2022/12/14 01:02:35;;;;;;;25.10;15.73;;;;;;;;;;4378499;32;317798;-86
2022/12/14 01:05:03;;;;;;;26.60;15.53;;;;;;;;;;4388336;32;317855;-87
2022/12/14 01:07:30;;;;;;;17.87;12.90;;;;;;;;;;4376318;32;317899;-84
2022/12/14 01:09:58;;;;;;;18.10;11.90;;;;;;;;;;4388104;32;317769;-87
2022/12/14 01:12:25;;;;;;;25.27;14.30;;;;;;;;;;4386587;32;317792;-86
2022/12/14 01:14:53;;;;;;;26.20;16.63;;;;;;;;;;4374863;32;419511;-75
2022/12/14 01:17:20;;;;;;;26.80;17.10;;;;;;;;;;4386791;32;317940;-83
2022/12/14 01:19:49;;;;;;;23.37;15.00;;;;;;;;;;4377789;32;317918;-87
2022/12/14 01:22:17;;;;;;;23.50;15.57;;;;;;;;;;4387743;32;317962;-87
2022/12/14 01:24:44;;;;;;;22.50;15.83;;;;;;;;;;4378203;32;318152;-83
2022/12/14 01:27:12;;;;;;;24.33;15.83;;;;;;;;;;4388995;32;317909;-84
2022/12/14 01:29:40;;;;;;;21.63;15.63;;;;;;;;;;4377506;32;317999;-87
2022/12/14 01:32:07;;;;;;;24.07;15.97;;;;;;;;;;4386607;32;317694;-84
2022/12/14 01:34:35;;;;;;;21.27;14.53;;;;;;;;;;4377476;32;317746;-76
2022/12/14 01:37:04;;;;;;;21.03;14.37;;;;;;;;;;4388387;32;317674;-75
2022/12/14 01:39:31;;;;;;;46.63;22.90;;;;;;;;;;4376195;32;317788;-84
2022/12/14 01:41:59;;;;;;;32.23;18.13;;;;;;;;;;4386362;32;318263;-86
2022/12/14 01:44:55;;;;;;;22.07;14.13;;;;;;;;;;4387621;32;318003;-84
2022/12/14 01:47:30;;;;;;;24.27;14.07;;;;;;;;;;4383963;32;419918;-87
2022/12/14 01:50:03;;;;;;;20.53;13.33;;;;;;;;;;4371897;32;417334;-75
2022/12/14 01:52:38;;;;;;;24.43;13.80;;;;;;;;;;4376606;32;317687;-84
2022/12/14 01:55:10;;;;;;;29.17;18.43;;;;;;;;;;4387934;32;317967;-84
2022/12/14 01:57:40;;;;;;;29.63;19.50;;;;;;;;;;4375434;32;317983;-84
2022/12/14 02:00:09;;;;;;;33.47;19.63;;;;;;;;;;4387104;32;317810;-84
2022/12/14 02:02:40;;;;;;;32.00;21.20;;;;;;;;;;4377578;32;317868;-85
2022/12/14 02:05:10;;;;;;;27.40;17.77;;;;;;;;;;4385899;32;318011;-80
2022/12/14 02:07:40;;;;;;;21.43;15.10;;;;;;;;;;4376592;32;317893;-87
2022/12/14 02:10:09;;;;;;;27.83;17.40;;;;;;;;;;4386806;32;317919;-81
2022/12/14 02:12:41;;;;;;;28.40;17.07;;;;;;;;;;4374769;32;318044;-84
2022/12/14 02:15:10;;;;;;;24.40;14.93;;;;;;;;;;4384936;32;317887;-85
2022/12/14 02:17:38;;;;;;;27.20;18.10;;;;;;;;;;4376129;32;317952;-87
2022/12/14 02:20:06;;;;;;;21.57;15.17;;;;;;;;;;4385783;32;317863;-85
2022/12/14 02:23:13;;;;;;;22.43;15.17;;;;;;;;;;4376606;32;317863;-87
2022/12/14 02:26:16;;;;;;;22.87;16.33;;;;;;;;;;4374375;32;317800;-80
2022/12/14 02:29:18;;;;;;;18.43;13.23;;;;;;;;;;4375914;32;317764;-77
2022/12/14 02:31:57;;;;;;;20.80;14.70;;;;;;;;;;4376230;32;317899;-74
2022/12/14 02:34:35;;;;;;;18.80;14.40;;;;;;;;;;4386028;32;317869;-87
2022/12/14 02:37:11;;;;;;;18.50;13.97;;;;;;;;;;4372380;32;418342;-82
2022/12/14 02:39:46;;;;;;;21.27;13.47;;;;;;;;;;4375664;32;318099;-74
2022/12/14 02:42:15;;;;;;;20.37;14.37;;;;;;;;;;4385750;32;317900;-74
2022/12/14 02:44:51;;;;;;;19.57;12.67;;;;;;;;;;4375065;32;317950;-75
2022/12/14 02:47:25;;;;;;;21.00;14.20;;;;;;;;;;4385220;32;317714;-74
2022/12/14 02:50:03;;;;;;;20.40;14.70;;;;;;;;;;4371856;32;419508;-85
2022/12/14 02:52:39;;;;;;;20.97;14.73;;;;;;;;;;4377429;32;317903;-85
2022/12/14 02:55:14;;;;;;;24.17;15.17;;;;;;;;;;4384551;32;317842;-74
2022/12/14 02:57:48;;;;;;;22.53;14.77;;;;;;;;;;4374344;32;317711;-88
2022/12/14 03:00:16;;;;;;;21.50;14.87;;;;;;;;;;4386084;32;317922;-84
2022/12/14 03:02:48;;;;;;;17.93;14.33;;;;;;;;;;4375640;32;317796;-84
2022/12/14 03:05:15;;;;;;;25.50;14.60;;;;;;;;;;4386495;32;317823;-75
2022/12/14 03:07:47;;;;;;;22.20;14.63;;;;;;;;;;4375859;32;318037;-85
2022/12/14 03:10:27;;;;;;;22.50;16.20;;;;;;;;;;4386338;32;318134;-83
2022/12/14 03:12:58;;;;;;;24.63;15.80;;;;;;;;;;4374604;32;417225;-85
2022/12/14 03:15:28;;;;;;;17.57;13.73;;;;;;;;;;4385807;32;317782;-76
2022/12/14 03:18:01;;;;;;;18.77;13.80;;;;;;;;;;4370698;32;418045;-75
2022/12/14 03:20:32;;;;;;;24.97;14.87;;;;;;;;;;4374018;32;318075;-83
2022/12/14 03:23:03;;;;;;;22.70;15.20;;;;;;;;;;4386160;32;318027;-86
2022/12/14 03:25:35;;;;;;;25.33;14.20;;;;;;;;;;4374021;32;318007;-87
2022/12/14 03:28:09;;;;;;;21.20;15.47;;;;;;;;;;4384633;32;317780;-84
2022/12/14 03:30:41;;;;;;;23.20;16.40;;;;;;;;;;4375878;32;317841;-75
2022/12/14 03:33:14;;;;;;;20.67;14.37;;;;;;;;;;4385104;32;317962;-75
2022/12/14 03:35:46;;;;;;;18.77;15.03;;;;;;;;;;4375757;32;324029;-74
2022/12/14 03:38:20;;;;;;;20.47;16.33;;;;;;;;;;4385768;32;317814;-80
2022/12/14 03:40:55;;;;;;;36.23;25.67;;;;;;;;;;4374335;32;318048;-84
2022/12/14 03:43:28;;;;;;;33.57;20.83;;;;;;;;;;4386866;32;318367;-88
2022/12/14 03:46:04;;;;;;;34.50;21.30;;;;;;;;;;4371993;32;417503;-84
2022/12/14 03:48:40;;;;;;;30.40;21.97;;;;;;;;;;4372823;32;317880;-75
2022/12/14 03:51:14;;;;;;;85.93;40.27;;;;;;;;;;4385497;32;317765;-85
2022/12/14 03:53:47;;;;;;;314.50;127.20;;;;;;;;;;4374296;32;326928;-84
2022/12/14 03:56:19;;;;;;;143.30;68.97;;;;;;;;;;4386397;32;319942;-79
2022/12/14 03:58:56;;;;;;;152.70;73.13;;;;;;;;;;4373746;32;335628;-83
2022/12/14 04:01:35;;;;;;;67.53;38.67;;;;;;;;;;4385959;32;319036;-85
2022/12/14 04:04:09;;;;;;;41.63;25.90;;;;;;;;;;4371410;32;418035;-83
2022/12/14 04:06:44;;;;;;;23.37;18.50;;;;;;;;;;4373688;32;318089;-75
2022/12/14 04:09:23;;;;;;;25.83;18.33;;;;;;;;;;4385602;32;317913;-87
2022/12/14 04:20:39;;;;;;;29.70;20.80;;;;;;;;;;4375308;32;317740;-84
2022/12/14 04:23:12;;;;;;;32.90;21.20;;;;;;;;;;4384998;32;317995;-83
2022/12/14 04:31:21;;;;;;;29.77;21.13;;;;;;;;;;4384864;32;317673;-83
2022/12/14 04:33:55;;;;;;;31.13;20.10;;;;;;;;;;4374565;32;317873;-86
2022/12/14 04:36:28;;;;;;;27.93;19.90;;;;;;;;;;4386252;32;317790;-88
2022/12/14 04:39:00;;;;;;;32.00;24.43;;;;;;;;;;4372944;32;418111;-85
2022/12/14 04:41:32;;;;;;;36.67;24.20;;;;;;;;;;4386028;32;317851;-84
2022/12/14 04:44:03;;;;;;;29.77;22.73;;;;;;;;;;4370781;32;419228;-85
2022/12/14 04:46:34;;;;;;;31.07;22.47;;;;;;;;;;4374685;32;318141;-88
2022/12/14 04:49:08;;;;;;;32.83;22.20;;;;;;;;;;4389229;32;317724;-88
2022/12/14 04:51:45;;;;;;;29.87;20.60;;;;;;;;;;4376012;32;317858;-76
2022/12/14 04:54:17;;;;;;;24.03;17.80;;;;;;;;;;4388798;32;318213;-83
2022/12/14 04:56:51;;;;;;;30.10;19.70;;;;;;;;;;4379052;32;317698;-86
2022/12/14 04:59:18;;;;;;;29.53;20.77;;;;;;;;;;4388878;32;317719;-74
2022/12/14 05:01:55;;;;;;;26.37;17.87;;;;;;;;;;4376023;32;318115;-85
2022/12/14 05:04:33;;;;;;;23.90;16.47;;;;;;;;;;4386933;32;317614;-84
2022/12/14 05:07:11;;;;;;;18.53;13.97;;;;;;;;;;4374869;32;417201;-84
2022/12/14 05:09:46;;;;;;;22.57;16.13;;;;;;;;;;4377749;32;317709;-74
2022/12/14 05:12:17;;;;;;;19.23;13.93;;;;;;;;;;4392441;32;317431;-74
2022/12/14 05:14:49;;;;;;;23.03;14.77;;;;;;;;;;4384643;32;317589;-74
2022/12/14 05:17:17;;;;;;;22.47;15.47;;;;;;;;;;4394541;32;318090;-76
2022/12/14 05:19:48;;;;;;;29.67;16.57;;;;;;;;;;4385646;32;317327;-79
2022/12/14 05:22:18;;;;;;;29.33;19.97;;;;;;;;;;4393141;32;317848;-82
2022/12/14 05:24:45;;;;;;;28.30;21.33;;;;;;;;;;4380853;32;317900;-83
2022/12/14 05:27:13;;;;;;;30.20;21.20;;;;;;;;;;4395554;32;316563;-77
2022/12/14 05:29:40;;;;;;;24.73;19.33;;;;;;;;;;4381920;32;317633;-88
2022/12/14 05:32:10;;;;;;;32.80;21.43;;;;;;;;;;4386191;32;358598;-85
2022/12/14 05:34:37;;;;;;;34.53;22.50;;;;;;;;;;4377594;32;317841;-82
2022/12/14 05:37:04;;;;;;;49.40;31.67;;;;;;;;;;4388290;32;317883;-85
2022/12/14 05:39:33;;;;;;;30.73;23.87;;;;;;;;;;4372698;32;317837;-89
2022/12/14 05:42:01;;;;;;;27.17;19.73;;;;;;;;;;4386346;32;317805;-84
2022/12/14 05:44:28;;;;;;;30.30;20.70;;;;;;;;;;4377975;32;316663;-83
2022/12/14 05:46:56;;;;;;;33.13;22.57;;;;;;;;;;4386054;32;342245;-84
2022/12/14 05:49:24;;;;;;;30.10;19.60;;;;;;;;;;4387628;32;317724;-81
2022/12/14 05:51:51;;;;;;;29.10;21.40;;;;;;;;;;4377081;32;317800;-83
2022/12/14 05:54:20;;;;;;;29.27;21.40;;;;;;;;;;4387620;32;317822;-83
2022/12/14 05:56:49;;;;;;;27.27;18.73;;;;;;;;;;4375956;32;317962;-86
2022/12/14 05:59:17;;;;;;;27.53;21.03;;;;;;;;;;4387507;32;317850;-88
2022/12/14 06:01:45;;;;;;;26.37;18.43;;;;;;;;;;4375334;32;317817;-83
2022/12/14 06:04:14;;;;;;;27.80;17.30;;;;;;;;;;4383876;32;317666;-84
2022/12/14 06:06:42;;;;;;;28.03;20.00;;;;;;;;;;4375761;32;317907;-75
2022/12/14 06:09:10;;;;;;;24.77;19.03;;;;;;;;;;4385495;32;317893;-87
2022/12/14 06:11:39;;;;;;;37.07;20.40;;;;;;;;;;4374237;32;317731;-75
2022/12/14 06:14:09;;;;;;;24.87;19.63;;;;;;;;;;4386300;32;318437;-76
2022/12/14 06:16:39;;;;;;;32.57;22.20;;;;;;;;;;4373892;32;317728;-83
2022/12/14 06:19:07;;;;;;;35.37;22.53;;;;;;;;;;4385837;32;317711;-85
2022/12/14 06:22:59;;;;;;;30.10;21.53;;;;;;;;;;4460766;32;20370;-83
2022/12/14 06:25:27;;;;;;;26.70;19.27;;;;;;;;;;4427921;32;316534;-86
2022/12/14 06:27:55;;;;;;;36.00;21.97;;;;;;;;;;4415241;32;417160;-86
2022/12/14 06:30:22;;;;;;;27.67;20.57;;;;;;;;;;4428388;32;317757;-87
2022/12/14 06:32:50;;;;;;;30.80;23.37;;;;;;;;;;4419239;32;317723;-91
2022/12/14 06:35:18;;;;;;;37.80;24.00;;;;;;;;;;4426954;32;317785;-88
2022/12/14 06:37:45;;;;;;;37.33;24.70;;;;;;;;;;4417967;32;318081;-94
2022/12/14 06:40:14;;;;;;;33.50;23.93;;;;;;;;;;4428440;32;316589;-75
2022/12/14 06:42:42;;;;;;;40.67;25.93;;;;;;;;;;4419103;32;317665;-92
2022/12/14 06:45:11;;;;;;;39.40;26.27;;;;;;;;;;4429409;32;317788;-86
2022/12/14 06:47:39;;;;;;;46.53;28.17;;;;;;;;;;4420647;32;317816;-79
2022/12/14 06:50:07;;;;;;;53.63;31.97;;;;;;;;;;4431063;32;317417;-86
2022/12/14 06:52:36;;;;;;;41.27;29.37;;;;;;;;;;4416683;32;317931;-82
2022/12/14 06:55:04;;;;;;;43.70;28.80;;;;;;;;;;4428953;32;317863;-79
2022/12/14 06:57:32;;;;;;;39.97;27.73;;;;;;;;;;4416898;32;318032;-81
2022/12/14 07:00:00;;;;;;;50.50;29.97;;;;;;;;;;4425920;32;317624;-83
2022/12/14 07:02:27;;;;;;;57.20;34.43;;;;;;;;;;4427542;32;317710;-76
2022/12/14 07:04:55;;;;;;;49.13;31.43;;;;;;;;;;4413231;32;417147;-82
2022/12/14 07:07:22;;;;;;;50.47;33.10;;;;;;;;;;4428265;32;317876;-83
2022/12/14 07:09:50;;;;;;;44.70;28.47;;;;;;;;;;4417642;32;317730;-82
2022/12/14 07:12:17;;;;;;;38.37;27.23;;;;;;;;;;4427558;32;317871;-82
2022/12/14 07:14:46;;;;;;;35.67;25.80;;;;;;;;;;4417129;32;317751;-81
2022/12/14 07:17:13;;;;;;;43.80;27.13;;;;;;;;;;4427561;32;317909;-82
2022/12/14 07:19:41;;;;;;;45.60;28.10;;;;;;;;;;4416538;32;317650;-82
2022/12/14 07:22:08;;;;;;;45.10;27.80;;;;;;;;;;4426172;32;318013;-82
2022/12/14 07:24:37;;;;;;;42.97;30.97;;;;;;;;;;4412688;32;317887;-76
2022/12/14 07:27:04;;;;;;;52.27;29.67;;;;;;;;;;4424350;32;318387;-82
2022/12/14 07:29:34;;;;;;;46.00;31.30;;;;;;;;;;4414662;32;318157;-82
2022/12/14 07:32:05;;;;;;;42.97;29.20;;;;;;;;;;4425092;32;317614;-80
2022/12/14 07:34:33;;;;;;;82.60;49.77;;;;;;;;;;4402329;32;360095;-76
2022/12/14 07:37:01;;;;;;;61.10;39.73;;;;;;;;;;4416745;32;318027;-81
2022/12/14 07:39:28;;;;;;;49.53;33.03;;;;;;;;;;4404625;32;317844;-81
2022/12/14 07:41:56;;;;;;;60.70;40.07;;;;;;;;;;4415499;32;318341;-82
2022/12/14 07:44:25;;;;;;;51.73;36.33;;;;;;;;;;4417615;32;317763;-77
2022/12/14 07:46:54;;;;;;;63.73;39.10;;;;;;;;;;4402792;32;418475;-82
2022/12/14 07:49:23;;;;;;;49.60;36.30;;;;;;;;;;4413668;32;351071;-78
2022/12/14 07:51:52;;;;;;;50.90;33.97;;;;;;;;;;4405248;32;317825;-80
2022/12/14 07:54:21;;;;;;;47.13;34.20;;;;;;;;;;4416189;32;317495;-79
2022/12/14 07:56:49;;;;;;;54.47;37.00;;;;;;;;;;4405161;32;318033;-78
2022/12/14 07:59:18;;;;;;;150.53;81.20;;;;;;;;;;4416949;32;317890;-86
2022/12/14 08:01:45;;;;;;;161.53;94.70;;;;;;;;;;4404703;32;318840;-86
2022/12/14 08:04:14;;;;;;;86.27;54.00;;;;;;;;;;4416243;32;318797;-85
2022/12/14 08:06:45;;;;;;;58.23;40.07;;;;;;;;;;4404234;32;317979;-77
2022/12/14 08:09:14;;;;;;;63.57;43.53;;;;;;;;;;4417010;32;318212;-84
2022/12/14 08:11:41;;;;;;;52.10;34.03;;;;;;;;;;4405755;32;318000;-78
2022/12/14 08:14:12;;;;;;;52.97;31.30;;;;;;;;;;4415918;32;333486;-84
2022/12/14 08:16:40;;;;;;;52.17;33.20;;;;;;;;;;4405890;32;317556;-78
2022/12/14 08:19:08;;;;;;;42.73;31.03;;;;;;;;;;4416049;32;317764;-77
2022/12/14 08:21:35;;;;;;;43.27;31.03;;;;;;;;;;4404621;32;318068;-83
2022/12/14 08:24:04;;;;;;;44.23;31.07;;;;;;;;;;4417026;32;317853;-81
2022/12/14 08:26:32;;;;;;;50.67;33.23;;;;;;;;;;4406583;32;318212;-80
2022/12/14 08:28:59;;;;;;;51.80;36.33;;;;;;;;;;4415768;32;317836;-85
2022/12/14 08:31:27;;;;;;;71.53;43.60;;;;;;;;;;4415896;32;317816;-80
2022/12/14 08:33:55;;;;;;;96.67;58.57;;;;;;;;;;4402460;32;416853;-85
2022/12/14 08:36:25;;;;;;;64.93;44.73;;;;;;;;;;4416443;32;316797;-77
2022/12/14 08:38:53;;;;;;;58.53;42.07;;;;;;;;;;4406247;32;317991;-83
2022/12/14 08:41:24;;;;;;;59.20;40.63;;;;;;;;;;4414674;32;317849;-85
2022/12/14 08:43:52;;;;;;;60.23;40.17;;;;;;;;;;4405234;32;317356;-78
2022/12/14 08:46:20;;;;;;;69.97;49.17;;;;;;;;;;4415462;32;318032;-80
2022/12/14 08:48:49;;;;;;;64.60;43.13;;;;;;;;;;4405789;32;318090;-82
2022/12/14 08:51:17;;;;;;;57.07;41.13;;;;;;;;;;4414531;32;317706;-79
2022/12/14 08:53:46;;;;;;;65.47;44.43;;;;;;;;;;4404100;32;317665;-84
2022/12/14 08:56:15;;;;;;;68.33;44.47;;;;;;;;;;4415741;32;317795;-83
2022/12/14 08:58:44;;;;;;;62.23;45.70;;;;;;;;;;4404173;32;346038;-76
2022/12/14 09:01:14;;;;;;;65.00;43.83;;;;;;;;;;4416175;32;317792;-82
2022/12/14 09:03:43;;;;;;;67.17;41.93;;;;;;;;;;4405110;32;317921;-84
2022/12/14 09:06:12;;;;;;;65.10;42.63;;;;;;;;;;4416138;32;317827;-78
2022/12/14 09:08:39;;;;;;;54.00;38.33;;;;;;;;;;4406124;32;318099;-83
2022/12/14 09:11:07;;;;;;;56.23;39.57;;;;;;;;;;4414531;32;333799;-79
2022/12/14 09:13:34;;;;;;;59.73;41.17;;;;;;;;;;4404238;32;317836;-78
2022/12/14 09:16:06;;;;;;;56.63;40.23;;;;;;;;;;4415182;32;317533;-78
2022/12/14 09:18:34;;;;;;;57.37;37.87;;;;;;;;;;4404196;32;317749;-79
2022/12/14 09:21:02;;;;;;;59.73;42.40;;;;;;;;;;4416035;32;317727;-84
2022/12/14 09:23:30;;;;;;;61.53;38.00;;;;;;;;;;4403483;32;317733;-77
2022/12/14 09:26:02;;;;;;;69.50;45.17;;;;;;;;;;4416416;32;317700;-84
2022/12/14 09:28:31;;;;;;;86.97;43.80;;;;;;;;;;4406257;32;317975;-79
2022/12/14 09:31:01;;;;;;;79.33;42.30;;;;;;;;;;4415354;32;316529;-83
2022/12/14 09:33:30;;;;;;;72.37;45.00;;;;;;;;;;4405589;32;317751;-83
2022/12/14 09:36:01;;;;;;;72.57;46.80;;;;;;;;;;4415389;32;317711;-81
2022/12/14 09:38:30;;;;;;;63.60;41.93;;;;;;;;;;4406551;32;317723;-78
2022/12/14 09:41:00;;;;;;;52.67;39.43;;;;;;;;;;4414563;32;318028;-85
2022/12/14 09:43:37;;;;;;;57.27;40.20;;;;;;;;;;4413365;32;317557;-80
2022/12/14 09:46:21;;;;;;;64.87;45.97;;;;;;;;;;4401859;32;420271;-82
2022/12/14 09:48:52;;;;;;;75.33;49.27;;;;;;;;;;4405256;32;318042;-83
2022/12/14 09:51:22;;;;;;;69.43;47.87;;;;;;;;;;4414559;32;317929;-85
2022/12/14 09:53:55;;;;;;;77.53;49.30;;;;;;;;;;4404040;32;317595;-83
2022/12/14 09:56:22;;;;;;;82.37;48.83;;;;;;;;;;4414163;32;317885;-77
2022/12/14 09:58:56;;;;;;;67.00;44.73;;;;;;;;;;4405261;32;317765;-79
2022/12/14 10:01:58;;;;;;;86.30;47.87;;;;;;;;;;4414173;32;318159;-83
2022/12/14 10:04:44;;;;;;;64.53;43.37;;;;;;;;;;4408567;32;417663;-84
2022/12/14 10:07:22;;;;;;;71.27;46.60;;;;;;;;;;4387538;32;418154;-77
2022/12/14 10:09:58;;;;;;;105.10;60.03;;;;;;;;;;4403705;32;317836;-78
2022/12/14 10:12:37;;;;;;;79.63;53.47;;;;;;;;;;4414999;32;318559;-78
2022/12/14 10:15:16;;;;;;;86.10;54.03;;;;;;;;;;4401328;32;418287;-81
2022/12/14 10:18:08;;;;;;;84.43;53.20;;;;;;;;;;4403914;32;318040;-85
2022/12/14 10:20:47;;;;;;;101.67;62.50;;;;;;;;;;4389473;32;317867;-78
2022/12/14 10:23:19;;;;;;;86.37;56.10;;;;;;;;;;4382120;32;319033;-77
2022/12/14 10:25:48;;;;;;;81.93;55.63;;;;;;;;;;4374289;32;317760;-83
2022/12/14 10:28:20;;;;;;;116.77;68.53;;;;;;;;;;4385109;32;317885;-86
2022/12/14 10:30:52;;;;;;;83.07;58.50;;;;;;;;;;4373484;32;318802;-85
2022/12/14 10:33:25;;;;;;;100.80;63.43;;;;;;;;;;4384599;32;317912;-79
2022/12/14 10:35:55;;;;;;;81.50;56.53;;;;;;;;;;4373997;32;318974;-86
2022/12/14 10:38:28;;;;;;;81.13;56.40;;;;;;;;;;4384677;32;317796;-89
2022/12/14 10:41:00;;;;;;;77.23;52.83;;;;;;;;;;4370143;32;417024;-79
2022/12/14 10:43:39;;;;;;;84.57;53.97;;;;;;;;;;4383998;32;317704;-88
2022/12/14 10:46:17;;;;;;;71.37;50.07;;;;;;;;;;4370718;32;417141;-77
2022/12/14 10:48:53;;;;;;;80.17;56.37;;;;;;;;;;4375049;32;317901;-82
2022/12/14 10:51:28;;;;;;;66.77;43.13;;;;;;;;;;4384545;32;317966;-86
2022/12/14 10:54:00;;;;;;;70.73;43.60;;;;;;;;;;4369880;32;418098;-86
2022/12/14 10:56:31;;;;;;;68.23;45.97;;;;;;;;;;4384343;32;317999;-82
2022/12/14 10:59:35;;;;;;;64.97;40.40;;;;;;;;;;4371002;32;417065;-84
2022/12/14 11:02:07;;;;;;;58.80;42.13;;;;;;;;;;4324864;33;418323;-83
2022/12/14 11:04:39;;;;;;;67.63;44.20;;;;;;;;;;4325387;33;318121;-81
2022/12/14 11:07:09;;;;;;;68.00;46.87;;;;;;;;;;4360941;32;317807;-78
2022/12/14 11:09:39;;;;;;;65.90;44.97;;;;;;;;;;4376203;32;317880;-77
2022/12/14 11:12:09;;;;;;;72.53;46.30;;;;;;;;;;4386623;32;317823;-82
2022/12/14 11:14:37;;;;;;;57.30;41.40;;;;;;;;;;4375506;32;318041;-81
2022/12/14 11:17:05;;;;;;;58.17;40.60;;;;;;;;;;4387053;32;317915;-80
2022/12/14 11:19:32;;;;;;;56.43;40.50;;;;;;;;;;4374598;32;318142;-80
2022/12/14 11:22:12;;;;;;;67.40;43.47;;;;;;;;;;4402993;32;318563;-79
2022/12/14 11:24:48;;;;;;;53.17;37.67;;;;;;;;;;4407020;32;318215;-79
2022/12/14 11:27:20;;;;;;;58.63;39.73;;;;;;;;;;4417899;32;317740;-84
2022/12/14 11:29:50;;;;;;;55.60;38.63;;;;;;;;;;4406118;32;318038;-81
2022/12/14 11:32:23;;;;;;;53.93;38.07;;;;;;;;;;4417167;32;317712;-80
2022/12/14 11:34:57;;;;;;;55.57;37.80;;;;;;;;;;4406529;32;351723;-83
2022/12/14 11:37:29;;;;;;;59.60;38.60;;;;;;;;;;4417458;32;317827;-80
2022/12/14 11:39:59;;;;;;;56.47;39.10;;;;;;;;;;4405685;32;416820;-84
2022/12/14 11:42:27;;;;;;;56.43;39.37;;;;;;;;;;4417043;32;317918;-81
2022/12/14 11:44:55;;;;;;;56.40;40.13;;;;;;;;;;4402108;32;416799;-85
2022/12/14 11:47:24;;;;;;;76.17;48.13;;;;;;;;;;4415244;32;317861;-86
2022/12/14 11:49:54;;;;;;;62.90;43.23;;;;;;;;;;4406574;32;318214;-85
2022/12/14 11:52:24;;;;;;;57.00;34.47;;;;;;;;;;4416735;32;317824;-83
2022/12/14 11:55:12;;;;;;;50.70;36.23;;;;;;;;;;4406142;32;317957;-78
2022/12/14 11:57:49;;;;;;;43.33;32.47;;;;;;;;;;4406783;32;317751;-85
2022/12/14 12:00:25;;;;;;;49.63;32.77;;;;;;;;;;4416773;32;318114;-77
2022/12/14 12:02:59;;;;;;;51.03;35.17;;;;;;;;;;4406279;32;317887;-77
2022/12/14 12:05:28;;;;;;;51.67;36.63;;;;;;;;;;4417507;32;318001;-83
2022/12/14 12:07:58;;;;;;;64.60;41.03;;;;;;;;;;4404251;32;417644;-81
2022/12/14 12:10:35;;;;;;;51.87;36.27;;;;;;;;;;4415084;32;345273;-80
2022/12/14 12:13:05;;;;;;;56.77;37.00;;;;;;;;;;4403174;32;416923;-88
2022/12/14 12:15:36;;;;;;;69.03;43.80;;;;;;;;;;4406784;32;318227;-87
2022/12/14 12:18:08;;;;;;;63.60;44.17;;;;;;;;;;4417174;32;316691;-85
2022/12/14 12:20:41;;;;;;;60.03;43.03;;;;;;;;;;4406443;32;317953;-85
2022/12/14 12:23:15;;;;;;;70.03;44.67;;;;;;;;;;4416860;32;317856;-84
2022/12/14 12:25:46;;;;;;;62.87;40.93;;;;;;;;;;4406964;32;317860;-78
2022/12/14 12:28:18;;;;;;;87.30;51.30;;;;;;;;;;4417203;32;317672;-77
2022/12/14 12:30:49;;;;;;;81.47;53.27;;;;;;;;;;4407608;32;317996;-84
2022/12/14 12:33:27;;;;;;;91.50;50.97;;;;;;;;;;4417872;32;317866;-83
2022/12/14 12:35:56;;;;;;;109.87;61.10;;;;;;;;;;4404347;32;417100;-75
2022/12/14 12:38:45;;;;;;;75.20;42.97;;;;;;;;;;4417913;32;318741;-85
2022/12/14 12:41:24;;;;;;;53.47;35.10;;;;;;;;;;4401901;32;418089;-76
2022/12/14 12:43:57;;;;;;;56.70;34.17;;;;;;;;;;4405404;32;317733;-81
2022/12/14 12:46:28;;;;;;;52.83;33.93;;;;;;;;;;4416824;32;317639;-87
2022/12/14 12:49:01;;;;;;;49.60;33.83;;;;;;;;;;4403964;32;417189;-77
2022/12/14 12:51:33;;;;;;;54.10;34.87;;;;;;;;;;4412888;32;318040;-82
2022/12/14 12:54:02;;;;;;;48.10;34.27;;;;;;;;;;4417422;32;317694;-83
2022/12/14 12:56:42;;;;;;;97.83;58.03;;;;;;;;;;4407673;32;318224;-77
2022/12/14 12:59:16;;;;;;;60.20;39.03;;;;;;;;;;4421471;32;317391;-76
2022/12/14 13:01:47;;;;;;;46.17;34.20;;;;;;;;;;4408353;32;318169;-81
2022/12/14 13:04:26;;;;;;;50.77;35.07;;;;;;;;;;4419790;32;317736;-84
2022/12/14 13:06:57;;;;;;;57.10;39.37;;;;;;;;;;4405436;32;417092;-78
2022/12/14 13:09:35;;;;;;;71.37;47.13;;;;;;;;;;4418884;32;318066;-88
2022/12/14 13:12:07;;;;;;;82.73;53.30;;;;;;;;;;4405196;32;419968;-78
2022/12/14 13:14:39;;;;;;;75.77;49.10;;;;;;;;;;4403714;32;342283;-86
2022/12/14 13:17:23;;;;;;;61.27;40.30;;;;;;;;;;4416678;32;317622;-86
2022/12/14 13:19:52;;;;;;;79.73;51.27;;;;;;;;;;4407116;32;317752;-86
2022/12/14 13:22:26;;;;;;;59.00;39.47;;;;;;;;;;4416463;32;317825;-82
2022/12/14 13:24:54;;;;;;;65.10;43.73;;;;;;;;;;4406620;32;318063;-89
2022/12/14 13:27:56;;;;;;;73.00;43.67;;;;;;;;;;4414397;32;352118;-85
2022/12/14 13:30:39;;;;;;;81.73;50.07;;;;;;;;;;4414302;32;417605;-86
2022/12/14 13:33:35;;;;;;;69.97;45.70;;;;;;;;;;4402433;32;418108;-83
2022/12/14 13:36:26;;;;;;;62.83;43.00;;;;;;;;;;4394585;32;418089;-76
2022/12/14 13:39:10;;;;;;;160.03;102.90;;;;;;;;;;4405997;32;317708;-76
2022/12/14 13:41:43;;;;;;;94.60;64.73;;;;;;;;;;4406377;32;319912;-75
2022/12/14 13:44:45;;;;;;;82.93;56.47;;;;;;;;;;4416275;32;317783;-76
2022/12/14 13:47:16;;;;;;;152.80;87.97;;;;;;;;;;4362459;32;421108;-89
2022/12/14 13:49:52;;;;;;;120.57;73.93;;;;;;;;;;4405467;32;319257;-85
2022/12/14 13:52:31;;;;;;;100.40;65.27;;;;;;;;;;4416370;32;318914;-88
2022/12/14 13:54:59;;;;;;;118.30;72.23;;;;;;;;;;4401666;32;422062;-82
2022/12/14 13:57:27;;;;;;;122.90;76.43;;;;;;;;;;4415471;32;318841;-80
2022/12/14 13:59:59;;;;;;;119.80;73.63;;;;;;;;;;4401679;32;419167;-81
2022/12/14 14:02:41;;;;;;;120.87;72.83;;;;;;;;;;4415706;32;318581;-85
2022/12/14 14:05:45;;;;;;;126.37;72.60;;;;;;;;;;4402616;32;419103;-83
2022/12/14 14:08:29;;;;;;;76.13;50.60;;;;;;;;;;4403611;32;418934;-86
2022/12/14 14:10:57;;;;;;;54.17;37.77;;;;;;;;;;4403301;32;418019;-78
2022/12/14 14:14:03;;;;;;;66.03;41.50;;;;;;;;;;4415932;32;317819;-81
2022/12/14 14:16:35;;;;;;;59.17;38.37;;;;;;;;;;4325383;32;417676;-86
2022/12/14 14:19:14;;;;;;;76.77;47.47;;;;;;;;;;4338911;32;317750;-81
2022/12/14 14:21:44;;;;;;;95.40;58.50;;;;;;;;;;4373288;32;317893;-87
2022/12/14 14:24:22;;;;;;;66.13;48.30;;;;;;;;;;4416073;32;317524;-81
2022/12/14 14:27:07;;;;;;;128.53;78.23;;;;;;;;;;4405365;32;317869;-84
2022/12/14 14:29:36;;;;;;;60.63;44.30;;;;;;;;;;4408791;32;318677;-78
2022/12/14 14:32:07;;;;;;;59.90;42.60;;;;;;;;;;4418679;32;317533;-80
2022/12/14 14:34:55;;;;;;;65.83;44.40;;;;;;;;;;4407938;32;317688;-79
2022/12/14 14:37:30;;;;;;;64.17;44.70;;;;;;;;;;4416456;32;317995;-78
2022/12/14 14:40:15;;;;;;;79.47;49.93;;;;;;;;;;4403685;32;417990;-84
2022/12/14 14:42:51;;;;;;;61.27;40.27;;;;;;;;;;4395325;32;318399;-78
2022/12/14 14:45:31;;;;;;;61.57;41.60;;;;;;;;;;4406993;32;317848;-78
2022/12/14 14:48:03;;;;;;;74.03;46.83;;;;;;;;;;4408014;32;418899;-85